Route Details

Aircraft Information
Group: European Fleet
Types: A30F, A31F, B738
Route Data
Distance: 907nm
Duration: 2h 10m
Origin METAR: LGTS 171120Z 29010KT 250V330 9999 FEW025 33/19 Q1010 NOSIG
Dest. METAR: EDDK 171120Z AUTO 26005KT 200V330 CAVOK 25/15 Q1011 NOSIG
Freight Data
(for Aug 18, 2022)
Load Factor:
100%
Manifested Cargo: 55,542lbs
Financial History
Total Freight: 80,850lbs
Average Load: 0lbs/flt
Fuel Used: 77,480lbs
Avg. Fuel Used: 0lbs/flt
Fuel Expense: $33,932
Avg. Fuel Expense: $0
Avg. Fuel Cost: $0/lbs
Total Gross Income: $179,260
Pilot Pay: $787
Total Expenses: $38,805
Total Revenue: $104,003
Average Revenue: $0

Capitol Logistics 553




LGTS
Makedonia Airport
Thessaloniki, GR
EDDK
Cologne Bonn Airport
Cologne, DE